createdAt,value
2019-05-12T00:01:48.092Z,99.90
2019-05-12T00:04:18.957Z,99.90
2019-05-12T00:06:47.969Z,99.90
2019-05-12T00:09:18.827Z,99.90
2019-05-12T00:11:48.424Z,99.90
2019-05-12T00:14:18.007Z,99.90
2019-05-12T00:16:49.141Z,99.90
2019-05-12T00:19:18.213Z,99.90
2019-05-12T00:21:48.301Z,99.90
2019-05-12T00:24:18.672Z,99.90
2019-05-12T00:26:48.231Z,99.90
2019-05-12T00:29:18.532Z,99.90
2019-05-12T00:31:48.532Z,99.90
2019-05-12T00:34:18.407Z,99.90
2019-05-12T00:36:48.499Z,99.90
2019-05-12T00:39:19.147Z,99.90
2019-05-12T00:41:48.320Z,99.90
2019-05-12T00:44:18.448Z,99.90
2019-05-12T00:46:48.750Z,99.90
2019-05-12T00:49:18.668Z,99.90
2019-05-12T00:51:48.501Z,99.90
2019-05-12T00:54:17.819Z,99.90
2019-05-12T00:56:48.146Z,99.90
2019-05-12T00:59:19.112Z,99.90
2019-05-12T01:01:48.151Z,99.90
2019-05-12T01:04:17.540Z,99.90
2019-05-12T01:06:48.599Z,99.90
2019-05-12T01:09:17.653Z,99.90
2019-05-12T01:11:48.146Z,99.90
2019-05-12T01:14:18.642Z,99.90
2019-05-12T01:16:48.658Z,99.90
2019-05-12T01:19:18.596Z,99.90
2019-05-12T01:21:48.176Z,99.90
2019-05-12T01:24:18.673Z,99.90
2019-05-12T01:26:47.747Z,99.90
2019-05-12T01:29:17.642Z,99.90
2019-05-12T01:31:54.456Z,99.90
2019-05-12T01:34:23.666Z,99.90
2019-05-12T01:36:54.043Z,99.90
2019-05-12T01:39:23.054Z,99.90
2019-05-12T01:41:51.774Z,99.90
2019-05-12T01:44:20.611Z,99.90
2019-05-12T01:46:49.760Z,99.90
2019-05-12T01:49:18.868Z,99.90
2019-05-12T01:51:48.045Z,99.90
2019-05-12T01:54:18.907Z,99.90
2019-05-12T01:56:48.347Z,99.90
2019-05-12T01:59:18.528Z,99.90
2019-05-12T02:01:48.791Z,99.90
2019-05-12T02:04:18.201Z,99.90
2019-05-12T02:06:48.560Z,99.90
2019-05-12T02:09:19.126Z,99.90
2019-05-12T02:11:48.344Z,99.90
2019-05-12T02:14:18.281Z,99.90
2019-05-12T02:16:47.694Z,99.90
2019-05-12T02:19:17.854Z,99.90
2019-05-12T02:21:48.700Z,99.90
2019-05-12T02:24:26.833Z,99.90
2019-05-12T02:26:48.780Z,99.90
2019-05-12T02:29:18.271Z,99.90
2019-05-12T02:31:50.027Z,99.90
2019-05-12T02:34:20.436Z,99.90
2019-05-12T02:36:49.206Z,99.90
2019-05-12T02:39:18.027Z,99.90
2019-05-12T02:41:46.823Z,99.90
2019-05-12T02:44:15.669Z,99.90
2019-05-12T02:46:44.804Z,99.90
2019-05-12T02:49:15.622Z,99.90
2019-05-12T02:51:45.634Z,99.90
2019-05-12T02:54:15.365Z,99.90
2019-05-12T02:56:45.930Z,99.90
2019-05-12T02:59:16.405Z,99.90
2019-05-12T03:01:48.531Z,99.90
2019-05-12T03:04:19.213Z,99.90
2019-05-12T03:06:48.339Z,99.90
2019-05-12T03:09:17.141Z,99.90
2019-05-12T03:11:46.282Z,99.90
2019-05-12T03:14:15.716Z,99.90
2019-05-12T03:16:45.497Z,99.90
2019-05-12T03:19:15.141Z,99.90
2019-05-12T03:21:44.380Z,99.90
2019-05-12T03:24:14.680Z,99.90
2019-05-12T03:26:45.058Z,99.90
2019-05-12T03:29:14.738Z,99.90
2019-05-12T03:31:48.807Z,99.90
2019-05-12T03:34:19.823Z,99.90
2019-05-12T03:36:51.387Z,99.90
2019-05-12T03:39:15.951Z,99.90
2019-05-12T03:41:44.884Z,99.90
2019-05-12T03:44:14.993Z,99.90
2019-05-12T03:46:45.544Z,99.90
2019-05-12T03:49:15.554Z,99.90
2019-05-12T03:51:45.642Z,99.90
2019-05-12T03:54:15.453Z,99.90
2019-05-12T03:56:45.132Z,99.90
2019-05-12T03:59:15.014Z,99.90
2019-05-12T04:01:45.059Z,99.90
2019-05-12T04:04:15.244Z,99.90
2019-05-12T04:06:45.497Z,99.90
2019-05-12T04:09:15.496Z,99.90
2019-05-12T04:11:45.131Z,99.90
2019-05-12T04:14:15.029Z,99.90
2019-05-12T04:16:45.165Z,99.90
2019-05-12T04:19:14.922Z,99.90
2019-05-12T04:21:44.803Z,99.90
2019-05-12T04:24:14.405Z,99.90
2019-05-12T04:26:44.906Z,99.90
2019-05-12T04:29:15.443Z,99.90
2019-05-12T04:31:44.425Z,99.90
2019-05-12T04:34:15.749Z,99.90
2019-05-12T04:36:44.939Z,99.90
2019-05-12T04:39:14.863Z,99.90
2019-05-12T04:41:44.760Z,99.90
2019-05-12T04:44:15.301Z,99.90
2019-05-12T04:46:45.519Z,99.90
2019-05-12T04:49:15.922Z,99.90
2019-05-12T04:51:45.471Z,99.90
2019-05-12T04:54:15.210Z,99.90
2019-05-12T04:56:45.760Z,99.90
2019-05-12T04:59:15.613Z,99.90
2019-05-12T05:01:45.876Z,99.90
2019-05-12T05:04:15.685Z,99.90
2019-05-12T05:06:45.235Z,99.90
2019-05-12T05:09:14.965Z,99.90
2019-05-12T05:11:45.147Z,99.90
2019-05-12T05:14:14.521Z,99.90
2019-05-12T05:16:45.102Z,99.90
2019-05-12T05:19:14.041Z,99.90
2019-05-12T05:21:43.758Z,99.90
2019-05-12T05:24:14.187Z,99.90
2019-05-12T05:26:43.672Z,99.90
2019-05-12T05:29:13.694Z,99.90
2019-05-12T05:31:44.162Z,99.90
2019-05-12T05:34:14.936Z,99.90
2019-05-12T05:36:43.635Z,99.90
2019-05-12T05:39:13.887Z,99.90
2019-05-12T05:41:48.839Z,99.90
2019-05-12T05:44:13.953Z,99.90
2019-05-12T05:46:48.262Z,99.90
2019-05-12T05:49:13.418Z,99.90
2019-05-12T05:51:46.736Z,99.90
2019-05-12T05:54:13.738Z,99.90
2019-05-12T05:56:56.986Z,99.90
2019-05-12T05:59:14.978Z,99.90
2019-05-12T06:01:47.146Z,99.90
2019-05-12T06:04:14.987Z,99.90
2019-05-12T06:06:50.766Z,99.90
2019-05-12T06:09:14.268Z,99.90
2019-05-12T06:11:43.775Z,99.90
2019-05-12T06:14:14.059Z,99.90
2019-05-12T06:16:43.430Z,99.90
2019-05-12T06:19:14.094Z,99.90
2019-05-12T06:21:44.076Z,99.90
2019-05-12T06:24:15.804Z,99.90
2019-05-12T06:26:56.755Z,99.90
2019-05-12T06:29:20.284Z,99.90
2019-05-12T06:31:44.423Z,99.90
2019-05-12T06:34:18.961Z,99.90
2019-05-12T06:36:44.142Z,99.90
2019-05-12T06:39:19.126Z,99.90
2019-05-12T06:41:44.369Z,99.90
2019-05-12T06:44:19.028Z,99.90
2019-05-12T06:46:44.317Z,99.90
2019-05-12T06:49:17.484Z,99.90
2019-05-12T06:51:44.445Z,99.90
2019-05-12T06:54:15.071Z,99.90
2019-05-12T06:56:44.154Z,99.90
2019-05-12T06:59:14.853Z,99.90
2019-05-12T07:01:44.984Z,99.90
2019-05-12T07:04:14.196Z,99.90
2019-05-12T07:06:44.138Z,99.90
2019-05-12T07:09:16.326Z,99.90
2019-05-12T07:11:52.918Z,99.90
2019-05-12T07:14:22.525Z,99.90
2019-05-12T07:16:46.241Z,99.90
2019-05-12T07:19:21.214Z,99.90
2019-05-12T07:21:45.425Z,99.90
2019-05-12T07:24:14.609Z,99.10
2019-05-12T07:26:44.254Z,99.20
2019-05-12T07:29:15.348Z,98.20
2019-05-12T07:31:44.231Z,97.30
2019-05-12T07:34:13.699Z,97.80
2019-05-12T07:36:44.544Z,98.40
2019-05-12T07:39:14.089Z,96.90
2019-05-12T07:41:50.992Z,99.10
2019-05-12T07:44:15.948Z,96.20
2019-05-12T07:46:49.364Z,96.70
2019-05-12T07:49:15.411Z,98.20
2019-05-12T07:51:44.734Z,97.60
2019-05-12T07:54:14.233Z,96.80
2019-05-12T07:56:44.168Z,96.80
2019-05-12T07:59:13.623Z,98.40
2019-05-12T08:01:48.708Z,97.70
2019-05-12T08:04:13.553Z,98.60
2019-05-12T08:06:46.783Z,96.40
2019-05-12T08:09:13.634Z,96.60
2019-05-12T08:11:43.376Z,96.00
2019-05-12T08:14:23.132Z,96.20
2019-05-12T08:16:43.763Z,96.70
2019-05-12T08:19:15.001Z,97.00
2019-05-12T08:21:48.581Z,96.40
2019-05-12T08:24:14.391Z,97.30
2019-05-12T08:26:43.635Z,98.20
2019-05-12T08:29:19.458Z,99.90
2019-05-12T08:31:44.032Z,98.30
2019-05-12T08:34:13.656Z,98.40
2019-05-12T08:36:44.923Z,98.00
2019-05-12T08:39:21.344Z,98.90
2019-05-12T08:41:44.417Z,97.70
2019-05-12T08:44:13.755Z,98.10
2019-05-12T08:46:51.559Z,97.50
2019-05-12T08:49:14.374Z,96.60
2019-05-12T08:51:44.292Z,95.50
2019-05-12T08:54:14.186Z,95.10
2019-05-12T08:56:43.664Z,95.80
2019-05-12T08:59:17.560Z,97.00
2019-05-12T09:01:43.853Z,96.00
2019-05-12T09:04:17.449Z,96.10
2019-05-12T09:06:43.573Z,96.50
2019-05-12T09:09:14.002Z,95.70
2019-05-12T09:11:44.086Z,95.60
2019-05-12T09:14:14.635Z,95.10
2019-05-12T09:16:43.992Z,93.30
2019-05-12T09:19:18.233Z,93.10
2019-05-12T09:21:44.359Z,94.70
2019-05-12T09:24:21.533Z,95.30
2019-05-12T09:26:43.784Z,95.10
2019-05-12T09:29:13.945Z,95.10
2019-05-12T09:31:44.059Z,97.40
2019-05-12T09:34:15.908Z,96.30
2019-05-12T09:36:44.776Z,96.70
2019-05-12T09:39:14.236Z,96.60
2019-05-12T09:41:49.474Z,94.70
2019-05-12T09:44:13.994Z,94.00
2019-05-12T09:46:44.057Z,95.10
2019-05-12T09:49:14.229Z,94.10
2019-05-12T09:51:45.917Z,91.50
2019-05-12T09:54:14.047Z,91.80
2019-05-12T09:56:44.132Z,91.20
2019-05-12T09:59:19.046Z,94.70
2019-05-12T10:01:45.924Z,93.20
2019-05-12T10:04:17.825Z,92.60
2019-05-12T10:06:44.999Z,93.50
2019-05-12T10:09:15.646Z,94.50
2019-05-12T10:11:44.775Z,92.80
2019-05-12T10:14:14.067Z,89.40
2019-05-12T10:16:45.675Z,80.80
2019-05-12T10:19:14.465Z,82.30
2019-05-12T10:21:44.066Z,83.50
2019-05-12T10:24:13.063Z,85.20
2019-05-12T10:26:48.754Z,84.60
2019-05-12T10:29:20.165Z,84.00
2019-05-12T10:31:44.518Z,87.50
2019-05-12T10:34:24.254Z,84.30
2019-05-12T10:36:53.815Z,90.70
2019-05-12T10:39:24.383Z,89.40
2019-05-12T10:41:54.499Z,91.70
2019-05-12T10:44:23.681Z,90.70
2019-05-12T10:46:54.086Z,90.20
2019-05-12T10:49:23.364Z,90.10
2019-05-12T10:51:53.983Z,84.30
2019-05-12T10:54:24.192Z,84.10
2019-05-12T10:56:54.574Z,89.90
2019-05-12T10:59:32.193Z,92.10
2019-05-12T11:01:54.205Z,91.50
2019-05-12T11:04:35.290Z,91.80
2019-05-12T11:06:53.969Z,88.30
2019-05-12T11:09:29.309Z,91.40
2019-05-12T11:11:54.001Z,92.70
2019-05-12T11:14:26.542Z,93.10
2019-05-12T11:16:55.387Z,93.10
2019-05-12T11:19:24.239Z,92.50
2019-05-12T11:21:53.584Z,93.20
2019-05-12T11:24:22.871Z,95.90
2019-05-12T11:26:53.493Z,93.90
2019-05-12T11:29:23.739Z,95.40
2019-05-12T11:31:53.880Z,93.60
2019-05-12T11:34:22.925Z,93.10
2019-05-12T11:36:54.343Z,92.30
2019-05-12T11:39:23.630Z,92.90
2019-05-12T11:41:55.359Z,91.70
2019-05-12T11:44:24.552Z,91.10
2019-05-12T11:46:54.688Z,90.30
2019-05-12T11:49:26.455Z,91.50
2019-05-12T11:51:54.549Z,91.80
2019-05-12T11:54:24.259Z,90.70
2019-05-12T11:56:53.657Z,94.40
2019-05-12T11:59:23.731Z,94.10
2019-05-12T12:01:53.975Z,96.50
2019-05-12T12:04:25.062Z,94.70
2019-05-12T12:06:54.385Z,94.80
2019-05-12T12:09:23.211Z,94.30
2019-05-12T12:11:54.701Z,94.70
2019-05-12T12:14:23.830Z,96.00
2019-05-12T12:16:54.488Z,96.20
2019-05-12T12:19:26.213Z,97.40
2019-05-12T12:21:54.219Z,97.10
2019-05-12T12:24:30.156Z,97.20
2019-05-12T12:26:53.961Z,97.80
2019-05-12T12:29:24.122Z,97.90
2019-05-12T12:31:56.752Z,96.80
2019-05-12T12:34:30.112Z,96.70
2019-05-12T12:36:56.393Z,96.70
2019-05-12T12:39:25.232Z,97.60
2019-05-12T12:42:00.154Z,97.80
2019-05-12T12:44:25.370Z,97.20
2019-05-12T12:46:59.792Z,96.30
2019-05-12T12:49:24.596Z,97.90
2019-05-12T12:51:53.448Z,97.60
2019-05-12T12:54:22.288Z,96.90
2019-05-12T12:56:51.083Z,98.20
2019-05-12T12:59:20.194Z,98.50
2019-05-12T13:01:49.230Z,99.90
2019-05-12T13:04:18.378Z,99.90
2019-05-12T13:06:47.218Z,99.90
2019-05-12T13:09:24.316Z,99.90
2019-05-12T13:11:46.533Z,99.20
2019-05-12T13:14:15.376Z,99.10
2019-05-12T13:16:44.183Z,99.10
2019-05-12T13:19:17.005Z,98.70
2019-05-12T13:21:43.977Z,98.80
2019-05-12T13:24:12.844Z,98.50
2019-05-12T13:26:43.526Z,98.20
2019-05-12T13:29:13.407Z,98.00
2019-05-12T13:31:46.521Z,98.80
2019-05-12T13:34:14.430Z,98.20
2019-05-12T13:36:44.017Z,97.50
2019-05-12T13:39:16.326Z,99.10
2019-05-12T13:41:43.918Z,98.90
2019-05-12T13:44:13.691Z,98.00
2019-05-12T13:46:43.729Z,98.10
2019-05-12T13:49:14.050Z,97.10
2019-05-12T13:51:48.136Z,95.90
2019-05-12T13:54:14.366Z,96.10
2019-05-12T13:56:44.329Z,96.30
2019-05-12T13:59:20.499Z,97.80
2019-05-12T14:01:45.789Z,96.40
2019-05-12T14:04:14.274Z,97.60
2019-05-12T14:06:43.452Z,96.80
2019-05-12T14:09:13.646Z,95.90
2019-05-12T14:11:43.751Z,96.20
2019-05-12T14:14:15.388Z,95.90
2019-05-12T14:16:44.560Z,96.30
2019-05-12T14:19:14.429Z,96.10
2019-05-12T14:21:43.406Z,95.10
2019-05-12T14:24:13.986Z,94.70
2019-05-12T14:26:45.367Z,94.80
2019-05-12T14:29:13.942Z,94.40
2019-05-12T14:31:49.980Z,94.80
2019-05-12T14:34:16.551Z,94.60
2019-05-12T14:36:44.197Z,94.80
2019-05-12T14:39:13.461Z,95.00
2019-05-12T14:41:44.398Z,95.40
2019-05-12T14:44:13.737Z,94.50
2019-05-12T14:46:46.314Z,94.40
2019-05-12T14:49:14.160Z,94.70
2019-05-12T14:51:44.357Z,94.40
2019-05-12T14:54:13.886Z,94.40
2019-05-12T14:56:47.159Z,94.10
2019-05-12T14:59:14.466Z,94.10
2019-05-12T15:01:53.521Z,94.00
2019-05-12T15:04:13.944Z,93.70
2019-05-12T15:06:44.323Z,94.90
2019-05-12T15:09:19.552Z,93.90
2019-05-12T15:11:44.666Z,94.60
2019-05-12T15:14:13.857Z,93.20
2019-05-12T15:16:44.830Z,92.50
2019-05-12T15:19:13.905Z,93.20
2019-05-12T15:21:43.676Z,93.10
2019-05-12T15:24:16.980Z,92.50
2019-05-12T15:26:43.353Z,92.80
2019-05-12T15:29:17.821Z,92.60
2019-05-12T15:31:53.096Z,93.70
2019-05-12T15:34:14.304Z,92.20
2019-05-12T15:36:51.646Z,90.50
2019-05-12T15:39:14.178Z,91.90
2019-05-12T15:41:43.050Z,90.10
2019-05-12T15:44:14.523Z,92.10
2019-05-12T15:46:44.248Z,89.50
2019-05-12T15:49:13.799Z,89.50
2019-05-12T15:51:51.014Z,90.80
2019-05-12T15:54:14.643Z,92.10
2019-05-12T15:56:43.727Z,90.90
2019-05-12T15:59:14.610Z,91.30
2019-05-12T16:01:43.918Z,92.70
2019-05-12T16:04:15.154Z,92.80
2019-05-12T16:06:52.909Z,95.20
2019-05-12T16:09:16.389Z,92.90
2019-05-12T16:11:45.184Z,92.10
2019-05-12T16:14:13.998Z,94.30
2019-05-12T16:16:46.230Z,94.70
2019-05-12T16:19:14.712Z,93.80
2019-05-12T16:21:45.632Z,94.40
2019-05-12T16:24:15.661Z,94.50
2019-05-12T16:26:51.558Z,95.40
2019-05-12T16:29:15.273Z,96.70
2019-05-12T16:31:45.585Z,96.30
2019-05-12T16:34:14.813Z,96.80
2019-05-12T16:36:50.246Z,96.60
2019-05-12T16:39:14.034Z,98.80
2019-05-12T16:41:43.928Z,98.50
2019-05-12T16:44:17.249Z,98.00
2019-05-12T16:46:44.514Z,97.60
2019-05-12T16:49:13.935Z,97.60
2019-05-12T16:51:43.831Z,98.20
2019-05-12T16:54:12.701Z,99.20
2019-05-12T16:56:43.400Z,97.70
2019-05-12T16:59:16.831Z,98.30
2019-05-12T17:01:43.889Z,99.90
2019-05-12T17:04:13.414Z,98.10
2019-05-12T17:06:43.301Z,98.60
2019-05-12T17:09:13.497Z,98.20
2019-05-12T17:11:47.295Z,98.60
2019-05-12T17:14:13.228Z,99.10
2019-05-12T17:16:46.384Z,99.70
2019-05-12T17:19:12.451Z,99.90
2019-05-12T17:21:41.293Z,99.90
2019-05-12T17:24:10.084Z,99.90
2019-05-12T17:26:38.930Z,99.90
2019-05-12T17:29:07.871Z,99.90
2019-05-12T17:31:36.677Z,99.90
2019-05-12T17:34:08.879Z,99.90
2019-05-12T17:36:35.972Z,99.90
2019-05-12T17:39:07.193Z,99.90
2019-05-12T17:41:40.218Z,99.90
2019-05-12T17:44:07.803Z,99.90
2019-05-12T17:46:37.911Z,99.90
2019-05-12T17:49:07.034Z,99.90
2019-05-12T17:51:36.095Z,99.90
2019-05-12T17:54:07.141Z,99.90
2019-05-12T17:56:38.624Z,99.90
2019-05-12T17:59:05.814Z,99.90
2019-05-12T18:01:36.291Z,99.90
2019-05-12T18:04:05.055Z,99.90
2019-05-12T18:06:34.159Z,99.90
2019-05-12T18:09:09.218Z,99.90
2019-05-12T18:11:35.373Z,99.90
2019-05-12T18:14:07.255Z,99.90
2019-05-12T18:16:35.840Z,99.90
2019-05-12T18:19:08.889Z,99.90
2019-05-12T18:21:35.048Z,99.90
2019-05-12T18:24:08.761Z,99.90
2019-05-12T18:26:35.046Z,99.90
2019-05-12T18:29:04.437Z,99.90
2019-05-12T18:31:33.519Z,99.90
2019-05-12T18:34:04.761Z,99.90
2019-05-12T18:36:34.208Z,99.90
2019-05-12T18:39:09.691Z,99.90
2019-05-12T18:41:34.256Z,99.90
2019-05-12T18:44:04.464Z,99.90
2019-05-12T18:46:36.258Z,99.90
2019-05-12T18:49:11.977Z,99.90
2019-05-12T18:51:34.434Z,99.90
2019-05-12T18:54:09.454Z,99.90
2019-05-12T18:56:33.887Z,99.90
2019-05-12T18:59:11.657Z,99.90
2019-05-12T19:01:33.621Z,99.90
2019-05-12T19:04:03.763Z,99.90
2019-05-12T19:06:33.774Z,99.90
2019-05-12T19:09:04.157Z,99.90
2019-05-12T19:11:41.707Z,99.90
2019-05-12T19:14:04.446Z,99.90
2019-05-12T19:16:33.568Z,99.90
2019-05-12T19:19:04.423Z,99.90
2019-05-12T19:21:32.897Z,99.90
2019-05-12T19:24:03.608Z,99.90
2019-05-12T19:26:32.955Z,99.90
2019-05-12T19:29:04.069Z,99.90
2019-05-12T19:31:33.338Z,99.90
2019-05-12T19:34:18.138Z,99.90
2019-05-12T19:36:36.066Z,99.90
2019-05-12T19:39:06.512Z,99.90
2019-05-12T19:41:36.387Z,99.90
2019-05-12T19:44:06.260Z,99.90
2019-05-12T19:46:39.739Z,99.90
2019-05-12T19:49:05.884Z,99.90
2019-05-12T19:51:34.678Z,99.90
2019-05-12T19:54:03.579Z,99.90
2019-05-12T19:56:35.887Z,99.90
2019-05-12T19:59:04.396Z,99.90
2019-05-12T20:01:34.501Z,99.90
2019-05-12T20:04:03.747Z,99.90
2019-05-12T20:06:33.563Z,99.90
2019-05-12T20:09:06.520Z,99.90
2019-05-12T20:11:33.902Z,99.90
2019-05-12T20:14:04.164Z,99.90
2019-05-12T20:16:34.628Z,99.90
2019-05-12T20:19:04.283Z,99.90
2019-05-12T20:21:34.017Z,99.90
2019-05-12T20:24:03.741Z,99.90
2019-05-12T20:26:33.198Z,99.90
2019-05-12T20:29:04.582Z,99.90
2019-05-12T20:31:35.554Z,99.90
2019-05-12T20:34:06.186Z,99.90
2019-05-12T20:36:34.509Z,99.90
2019-05-12T20:39:10.005Z,99.90
2019-05-12T20:41:35.376Z,99.90
2019-05-12T20:44:04.178Z,99.90
2019-05-12T20:46:34.015Z,99.90
2019-05-12T20:49:09.805Z,99.90
2019-05-12T20:51:34.044Z,99.90
2019-05-12T20:54:05.507Z,99.90
2019-05-12T20:56:34.339Z,99.90
2019-05-12T20:59:03.812Z,99.90
2019-05-12T21:01:33.602Z,99.90
2019-05-12T21:04:03.668Z,99.90
2019-05-12T21:06:41.342Z,99.90
2019-05-12T21:09:05.889Z,99.90
2019-05-12T21:11:34.716Z,99.90
2019-05-12T21:14:09.975Z,99.90
2019-05-12T21:16:38.663Z,99.90
2019-05-12T21:19:10.233Z,99.90
2019-05-12T21:21:38.319Z,99.90
2019-05-12T21:24:05.722Z,99.90
2019-05-12T21:26:37.751Z,99.90
2019-05-12T21:29:04.975Z,99.90
2019-05-12T21:31:33.849Z,99.90
2019-05-12T21:34:06.608Z,99.90
2019-05-12T21:36:33.957Z,99.90
2019-05-12T21:39:08.336Z,99.90
2019-05-12T21:41:34.492Z,99.90
2019-05-12T21:44:06.546Z,99.90
2019-05-12T21:46:34.601Z,99.90
2019-05-12T21:49:10.770Z,99.90
2019-05-12T21:51:35.413Z,99.90
2019-05-12T21:54:06.375Z,99.90
2019-05-12T21:56:37.969Z,99.90
2019-05-12T21:59:05.163Z,99.90
2019-05-12T22:01:42.986Z,99.90
2019-05-12T22:04:05.585Z,99.90
2019-05-12T22:06:34.833Z,99.90
2019-05-12T22:09:05.643Z,99.90
2019-05-12T22:11:34.855Z,99.90
2019-05-12T22:14:04.659Z,99.90
2019-05-12T22:16:43.071Z,99.90
2019-05-12T22:19:05.991Z,99.90
2019-05-12T22:21:43.347Z,99.90
2019-05-12T22:24:06.234Z,99.90
2019-05-12T22:26:39.676Z,99.90
2019-05-12T22:29:05.693Z,99.90
2019-05-12T22:31:38.665Z,99.90
2019-05-12T22:34:05.722Z,99.90
2019-05-12T22:36:34.541Z,99.90
2019-05-12T22:39:05.193Z,99.90
2019-05-12T22:41:36.899Z,99.90
2019-05-12T22:44:04.542Z,99.90
2019-05-12T22:46:35.838Z,99.90
2019-05-12T22:49:04.268Z,99.90
2019-05-12T22:51:33.478Z,99.90
2019-05-12T22:54:08.676Z,99.90
2019-05-12T22:56:34.302Z,99.90
2019-05-12T22:59:04.547Z,99.90
2019-05-12T23:01:41.321Z,99.90
2019-05-12T23:04:04.904Z,99.90
2019-05-12T23:06:42.299Z,99.90
2019-05-12T23:09:06.091Z,99.90
2019-05-12T23:11:37.793Z,99.90
2019-05-12T23:14:05.675Z,99.90
2019-05-12T23:16:34.521Z,99.90
2019-05-12T23:19:10.368Z,99.90
2019-05-12T23:21:49.227Z,99.90
2019-05-12T23:24:16.623Z,99.90
2019-05-12T23:26:47.804Z,99.90
2019-05-12T23:29:20.382Z,99.90
2019-05-12T23:31:46.728Z,99.90
2019-05-12T23:34:15.831Z,99.90
2019-05-12T23:36:44.929Z,99.90
2019-05-12T23:39:14.373Z,99.90
2019-05-12T23:41:43.800Z,99.90
2019-05-12T23:44:13.577Z,99.90
2019-05-12T23:46:43.793Z,99.90
2019-05-12T23:49:14.364Z,99.90
2019-05-12T23:51:43.939Z,99.90
2019-05-12T23:54:14.415Z,99.90
2019-05-12T23:56:44.425Z,99.90
2019-05-12T23:59:15.514Z,99.90
